Stevens Pass
Stevens Pass Ski Area - Brooks Chair
Latest observation 09/03 17:00 PDT
| Time (PDT) | Temp °F 4800' | RH % 4800' | Pcp1 in 4800' | PcpSum in 4800' | 24Sno in 4800' | SnoHt in 4800' |
|---|---|---|---|---|---|---|
| 09/03 17:00 | 44 | 89 | 0.00 | 0.41 | 103.1 | -7999.0 |
| 09/03 16:00 | 46 | 83 | 0.00 | 0.41 | 102.1 | -7999.0 |
| 09/03 15:00 | 47 | 75 | 0.00 | 0.41 | 97.4 | -7999.0 |
| 09/03 14:00 | 46 | 77 | 0.00 | 0.41 | 101.5 | -7999.0 |
| 09/03 13:00 | 48 | 69 | 0.00 | 0.41 | 111.4 | -7999.0 |
| 09/03 12:00 | 51 | 63 | 0.00 | 0.41 | 111.7 | -7999.0 |
| 09/03 11:00 | 47 | 72 | 0.00 | 0.41 | 108.5 | -7999.0 |
| 09/03 10:00 | 43 | 78 | 0.00 | 0.41 | 100.9 | -7999.0 |
| 09/03 09:00 | 42 | 83 | 0.00 | 0.41 | 100.5 | -7999.0 |
| 09/03 08:00 | 41 | 83 | 0.00 | 0.41 | 97.2 | -7999.0 |
| 09/03 07:00 | 37 | 91 | 0.00 | 0.41 | 143.2 | -7999.0 |
| 09/03 06:00 | 39 | 80 | 0.00 | 0.41 | 104.9 | -7999.0 |
| 09/03 05:00 | 39 | 88 | 0.00 | 0.41 | 128.9 | -7999.0 |
| 09/03 04:00 | 39 | 91 | 0.00 | 0.41 | 128.2 | -7999.0 |
| 09/03 03:00 | 38 | 87 | 0.00 | 0.41 | 134.3 | -7999.0 |
| 09/03 02:00 | 39 | 86 | 0.00 | 0.41 | 119.0 | -7999.0 |
| 09/03 01:00 | 38 | 90 | 0.00 | 0.41 | 149.1 | -7999.0 |
| 09/03 00:00 | 40 | 91 | 0.01 | 0.41 | 141.2 | -7999.0 |
| 09/02 23:00 | 40 | 90 | 0.00 | 0.40 | 135.9 | -7999.0 |
| 09/02 22:00 | 41 | 90 | 0.01 | 0.40 | 145.5 | -7999.0 |
| 09/02 21:00 | 42 | 95 | 0.04 | 0.39 | 147.4 | -7999.0 |
| 09/02 20:00 | 44 | 89 | 0.00 | 0.35 | 130.1 | -7999.0 |
| 09/02 19:00 | 44 | 88 | 0.00 | 0.35 | 126.0 | -7999.0 |
| 09/02 18:00 | 45 | 93 | 0.05 | 0.35 | 148.2 | -7999.0 |
| 09/02 17:00 | 48 | 90 | 0.02 | 0.30 | 122.6 | -7999.0 |
| 09/02 16:00 | 51 | 74 | 0.00 | 0.28 | 95.9 | -7999.0 |
| 09/02 15:00 | 50 | 82 | 0.03 | 0.28 | 105.4 | -7999.0 |
| 09/02 14:00 | 52 | 72 | 0.01 | 0.25 | 108.0 | -7999.0 |
| 09/02 13:00 | 49 | 74 | 0.00 | 0.24 | 107.1 | -7999.0 |
| 09/02 12:00 | 52 | 67 | 0.00 | 0.24 | 107.2 | -7999.0 |
| 09/02 11:00 | 51 | 72 | 0.00 | 0.24 | 108.4 | -7999.0 |
| 09/02 10:00 | 47 | 82 | 0.00 | 0.24 | 104.5 | -7999.0 |
| 09/02 09:00 | 45 | 90 | 0.00 | 0.24 | 106.6 | -7999.0 |
| 09/02 08:00 | 44 | 98 | 0.00 | 0.24 | 151.1 | -7999.0 |
| 09/02 07:00 | 44 | 97 | 0.00 | 0.24 | 152.8 | -7999.0 |
| 09/02 06:00 | 45 | 97 | 0.00 | 0.24 | 150.7 | -7999.0 |
| 09/02 05:00 | 45 | 93 | 0.00 | 0.24 | 143.6 | -7999.0 |
| 09/02 04:00 | 45 | 88 | 0.00 | 0.24 | 122.3 | -7999.0 |
| 09/02 03:00 | 45 | 95 | 0.00 | 0.24 | 145.4 | -7999.0 |
| 09/02 02:00 | 45 | 95 | 0.00 | 0.24 | 151.8 | -7999.0 |
| 09/02 01:00 | 45 | 97 | 0.00 | 0.24 | 151.5 | -7999.0 |
| 09/02 00:00 | 46 | 98 | 0.00 | 0.24 | 156.9 | -7999.0 |
| 09/01 23:00 | 46 | 98 | 0.00 | 0.24 | 152.0 | -7999.0 |
| 09/01 22:00 | 46 | 99 | 0.00 | 0.24 | 150.5 | -7999.0 |
| 09/01 21:00 | 47 | 97 | 0.00 | 0.24 | 144.7 | -7999.0 |
| 09/01 20:00 | 47 | 98 | 0.00 | 0.24 | 144.9 | -7999.0 |
| 09/01 19:00 | 47 | 98 | 0.00 | 0.24 | 137.7 | -7999.0 |
| 09/01 18:00 | 48 | 99 | 0.00 | 0.24 | 139.8 | -7999.0 |
| 09/01 17:00 | 49 | 98 | 0.00 | 0.24 | 101.4 | -7999.0 |
| 09/01 16:00 | 53 | 88 | 0.00 | 0.24 | 100.0 | -7999.0 |
| 09/01 15:00 | 56 | 76 | 0.00 | 0.24 | 96.2 | -7999.0 |
| 09/01 14:00 | 54 | 83 | 0.00 | 0.24 | 99.8 | -7999.0 |
| 09/01 13:00 | 57 | 69 | 0.00 | 0.24 | 102.2 | -7999.0 |
| 09/01 12:00 | 58 | 65 | 0.00 | 0.24 | 105.8 | -7999.0 |
| 09/01 11:00 | 60 | 62 | 0.00 | 0.24 | 110.9 | -7999.0 |
| 09/01 10:00 | 58 | 59 | 0.00 | 0.24 | 98.4 | -7999.0 |
| 09/01 09:00 | 55 | 67 | 0.00 | 0.24 | 83.7 | -7999.0 |
| 09/01 08:00 | 53 | 66 | 0.00 | 0.24 | 78.8 | -7999.0 |
| 09/01 07:00 | 50 | 65 | 0.00 | 0.24 | 89.9 | -7999.0 |
| 09/01 06:00 | 52 | 57 | 0.00 | 0.24 | 87.7 | -7999.0 |
| 09/01 05:00 | 53 | 52 | 0.00 | 0.24 | 91.2 | -7999.0 |
| 09/01 04:00 | 54 | 51 | 0.00 | 0.24 | 95.6 | -7999.0 |
| 09/01 03:00 | 60 | 39 | 0.00 | 0.24 | 88.2 | -7999.0 |
| 09/01 02:00 | 61 | 37 | 0.00 | 0.24 | 78.9 | -7999.0 |
| 09/01 01:00 | 56 | 48 | 0.00 | 0.24 | 87.1 | -7999.0 |
| 09/01 00:00 | 56 | 53 | 0.00 | 0.24 | 87.5 | -7999.0 |
| 08/31 23:00 | 58 | 46 | 0.00 | 0.24 | 80.6 | -7999.0 |
| 08/31 22:00 | 56 | 54 | 0.00 | 0.24 | 88.1 | -7999.0 |
| 08/31 21:00 | 57 | 52 | 0.00 | 0.24 | 86.6 | -7999.0 |
| 08/31 20:00 | 56 | 60 | 0.00 | 0.24 | 102.6 | -7999.0 |
| 08/31 19:00 | 61 | 48 | 0.00 | 0.24 | 105.0 | -7999.0 |
| 08/31 18:00 | 65 | 42 | 0.00 | 0.24 | 116.3 | -7999.0 |
| 08/31 17:00 | 67 | 40 | 0.00 | 0.24 | 119.9 | -7999.0 |
| 08/31 16:00 | 69 | 39 | 0.00 | 0.24 | 119.5 | -7999.0 |
| 08/31 15:00 | 68 | 40 | 0.00 | 0.24 | 118.9 | -7999.0 |
| 08/31 14:00 | 67 | 44 | 0.00 | 0.24 | 118.7 | -7999.0 |
| 08/31 13:00 | 64 | 49 | 0.00 | 0.24 | 113.9 | -7999.0 |
| 08/31 12:00 | 61 | 55 | 0.00 | 0.24 | 109.0 | -7999.0 |
| 08/31 11:00 | 59 | 59 | 0.00 | 0.24 | 103.7 | -7999.0 |
| 08/31 10:00 | 55 | 65 | 0.00 | 0.24 | 100.1 | -7999.0 |
| 08/31 09:00 | 52 | 72 | 0.00 | 0.24 | 95.5 | -7999.0 |
| 08/31 08:00 | 50 | 77 | 0.00 | 0.24 | 87.0 | -7999.0 |
| 08/31 07:00 | 46 | 85 | 0.00 | 0.24 | 94.1 | -7999.0 |
| 08/31 06:00 | 47 | 80 | 0.00 | 0.24 | 93.5 | -7999.0 |
| 08/31 05:00 | 47 | 79 | 0.00 | 0.24 | 107.4 | -7999.0 |
| 08/31 04:00 | 45 | 86 | 0.00 | 0.24 | 250.1 | -7999.0 |
| 08/31 03:00 | 45 | 89 | 0.00 | 0.24 | 206.0 | -7999.0 |
| 08/31 02:00 | 45 | 91 | 0.00 | 0.24 | 197.1 | -7999.0 |
| 08/31 01:00 | 43 | 98 | 0.00 | 0.24 | 187.6 | -7999.0 |
| 08/31 00:00 | 42 | 96 | 0.00 | 0.24 | 155.4 | -7999.0 |
| 08/30 23:00 | 44 | 93 | 0.00 | 0.24 | 128.5 | -7999.0 |
| 08/30 22:00 | 45 | 91 | 0.00 | 0.24 | 88.0 | -7999.0 |
| 08/30 21:00 | 45 | 90 | 0.00 | 0.24 | 89.8 | -7999.0 |
| 08/30 20:00 | 45 | 91 | 0.00 | 0.24 | 90.4 | -7999.0 |
| 08/30 19:00 | 45 | 89 | 0.00 | 0.24 | 87.5 | -7999.0 |
| 08/30 18:00 | 46 | 86 | 0.00 | 0.24 | 88.7 | -7999.0 |
| 08/30 17:00 | 46 | 82 | 0.00 | 0.24 | 88.7 | -7999.0 |
| 08/30 16:00 | 46 | 85 | 0.00 | 0.24 | 90.7 | -7999.0 |
| 08/30 15:00 | 46 | 84 | 0.00 | 0.24 | 92.5 | -7999.0 |
| 08/30 14:00 | 45 | 84 | 0.00 | 0.24 | 93.4 | -7999.0 |
| 08/30 13:00 | 45 | 83 | 0.00 | 0.24 | 91.6 | -7999.0 |
| 08/30 12:00 | 44 | 87 | 0.00 | 0.24 | 91.1 | -7999.0 |
| 08/30 11:00 | 42 | 90 | 0.00 | 0.24 | 92.8 | -7999.0 |
| 08/30 10:00 | 42 | 92 | 0.00 | 0.24 | 95.5 | -7999.0 |
| 08/30 09:00 | 41 | 92 | 0.00 | 0.24 | 98.0 | -7999.0 |
| 08/30 08:00 | 42 | 90 | 0.00 | 0.24 | 99.6 | -7999.0 |
| 08/30 07:00 | 41 | 94 | 0.00 | 0.24 | 144.8 | -7999.0 |
| 08/30 06:00 | 41 | 95 | 0.00 | 0.24 | 143.8 | -7999.0 |
| 08/30 05:00 | 41 | 97 | 0.00 | 0.24 | 142.1 | -7999.0 |
| 08/30 04:00 | 41 | 91 | 0.00 | 0.24 | 114.9 | -7999.0 |
| 08/30 03:00 | 41 | 94 | 0.00 | 0.24 | 141.4 | -7999.0 |
| 08/30 02:00 | 42 | 91 | 0.00 | 0.24 | 126.2 | -7999.0 |
| 08/30 01:00 | 41 | 91 | 0.00 | 0.24 | 152.2 | -7999.0 |
| 08/30 00:00 | 41 | 88 | 0.00 | 0.24 | 149.3 | -7999.0 |
| 08/29 23:00 | 41 | 91 | 0.00 | 0.24 | 149.9 | -7999.0 |
| 08/29 22:00 | 42 | 89 | 0.00 | 0.24 | 145.9 | -7999.0 |
| 08/29 21:00 | 42 | 91 | 0.00 | 0.24 | 146.4 | -7999.0 |
| 08/29 20:00 | 42 | 88 | 0.00 | 0.24 | 152.2 | -7999.0 |
| 08/29 19:00 | 42 | 90 | 0.00 | 0.24 | 155.2 | -7999.0 |
| 08/29 18:00 | 42 | 89 | 0.00 | 0.24 | 157.6 | -7999.0 |
| 08/29 17:00 | 44 | 82 | 0.00 | 0.24 | 119.3 | -7999.0 |
| 08/29 16:00 | 43 | 88 | 0.00 | 0.24 | 142.5 | -7999.0 |
| 08/29 15:00 | 42 | 93 | 0.02 | 0.24 | 155.3 | -7999.0 |
| 08/29 14:00 | 41 | 94 | 0.04 | 0.22 | 153.2 | -7999.0 |
| 08/29 13:00 | 41 | 94 | 0.08 | 0.18 | 156.1 | -7999.0 |
| 08/29 12:00 | 41 | 95 | 0.01 | 0.10 | 150.4 | -7999.0 |
| 08/29 11:00 | 40 | 95 | 0.01 | 0.09 | 137.0 | -7999.0 |
| 08/29 10:00 | 40 | 97 | 0.01 | 0.08 | 114.2 | -7999.0 |
| 08/29 09:00 | 40 | 97 | 0.02 | 0.07 | 123.4 | -7999.0 |
| 08/29 08:00 | 40 | 98 | 0.00 | 0.05 | 133.6 | -7999.0 |
| 08/29 07:00 | 41 | 95 | 0.00 | 0.05 | 124.7 | -7999.0 |
| 08/29 06:00 | 41 | 96 | 0.01 | 0.05 | 129.9 | -7999.0 |
| 08/29 05:00 | 42 | 95 | 0.01 | 0.04 | 131.1 | -7999.0 |
| 08/29 04:00 | 42 | 95 | 0.02 | 0.03 | 141.9 | -7999.0 |
| 08/29 03:00 | 43 | 96 | 0.01 | 0.01 | 124.5 | -7999.0 |
| 08/29 02:00 | 44 | 96 | 0.00 | 0.00 | 124.8 | -7999.0 |
| 08/29 01:00 | 45 | 91 | 0.00 | 0.00 | 133.5 | -7999.0 |
| 08/29 00:00 | 46 | 89 | 0.00 | 0.00 | 133.1 | -7999.0 |
| 08/28 23:00 | 46 | 91 | 0.00 | 0.00 | 140.5 | -7999.0 |
| 08/28 22:00 | 46 | 91 | 0.00 | 0.00 | 139.1 | -7999.0 |
| 08/28 21:00 | 47 | 90 | 0.00 | 0.00 | 136.7 | -7999.0 |
| 08/28 20:00 | 48 | 88 | 0.00 | 0.00 | 127.9 | -7999.0 |
| 08/28 19:00 | 49 | 84 | 0.00 | 0.00 | 131.9 | -7999.0 |
| 08/28 18:00 | 54 | 69 | 0.00 | 0.00 | 139.0 | -7999.0 |
| 08/28 17:00 | 57 | 59 | 0.00 | 0.00 | 141.4 | -7999.0 |
| 08/28 16:00 | 58 | 55 | 0.00 | 0.00 | 138.4 | -7999.0 |
| 08/28 15:00 | 58 | 55 | 0.00 | 0.00 | 136.9 | -7999.0 |
| 08/28 14:00 | 58 | 56 | 0.00 | 0.00 | 134.3 | -7999.0 |
| 08/28 13:00 | 53 | 68 | 0.00 | 0.00 | 129.2 | -7999.0 |
| 08/28 12:00 | 51 | 73 | 0.00 | 0.00 | 127.3 | -7999.0 |
| 08/28 11:00 | 49 | 81 | 0.00 | 0.00 | 122.8 | -7999.0 |
| 08/28 10:00 | 49 | 85 | 0.00 | 0.00 | 113.4 | -7999.0 |
| 08/28 09:00 | 46 | 89 | 0.00 | 0.00 | 106.9 | -7999.0 |
| 08/28 08:00 | 45 | 94 | 0.00 | 0.00 | 121.5 | -7999.0 |
| 08/28 07:00 | 45 | 94 | 0.00 | 0.00 | 139.2 | -7999.0 |
| 08/28 06:00 | 45 | 94 | 0.00 | 0.00 | 139.0 | -7999.0 |
| 08/28 05:00 | 45 | 96 | 0.00 | 0.00 | 116.4 | -7999.0 |
| 08/28 04:00 | 45 | 95 | 0.00 | 0.00 | 112.7 | -7999.0 |
| 08/28 03:00 | 46 | 89 | 0.00 | 0.00 | 135.1 | -7999.0 |
| 08/28 02:00 | 46 | 91 | 0.00 | 0.00 | 133.9 | -7999.0 |
| 08/28 01:00 | 46 | 93 | 0.00 | 0.00 | 136.7 | -7999.0 |
| 08/28 00:00 | 47 | 91 | 0.00 | 0.00 | 127.9 | -7999.0 |
| 08/27 23:00 | 48 | 91 | 0.00 | 0.00 | 122.0 | -7999.0 |
| 08/27 22:00 | 49 | 86 | 0.00 | 0.00 | 123.0 | -7999.0 |
| 08/27 21:00 | 49 | 86 | 0.00 | 0.00 | 123.6 | -7999.0 |
| 08/27 20:00 | 49 | 84 | 0.00 | 0.00 | 125.1 | -7999.0 |
| 08/27 19:00 | 50 | 78 | 0.00 | 0.00 | 129.4 | -7999.0 |
| 08/27 18:00 | 52 | 73 | 0.00 | 0.00 | 132.9 | -7999.0 |

